createdAt,value
2018-06-18T00:06:20.961Z,99.90
2018-06-18T00:11:17.596Z,99.90
2018-06-18T00:13:45.810Z,99.90
2018-06-18T00:18:42.282Z,99.90
2018-06-18T00:21:10.468Z,99.90
2018-06-18T00:23:38.645Z,99.90
2018-06-18T00:26:07.025Z,99.90
2018-06-18T00:28:35.247Z,99.90
2018-06-18T00:31:03.701Z,99.90
2018-06-18T00:33:32.231Z,99.90
2018-06-18T00:36:00.434Z,99.90
2018-06-18T00:38:28.809Z,99.90
2018-06-18T00:40:57.231Z,99.90
2018-06-18T00:43:26.082Z,99.90
2018-06-18T00:45:54.932Z,99.90
2018-06-18T00:48:23.519Z,99.90
2018-06-18T00:53:20.476Z,99.90
2018-06-18T00:56:00.065Z,99.90
2018-06-18T00:58:28.866Z,99.90
2018-06-18T01:00:57.029Z,99.90
2018-06-18T01:03:25.575Z,99.90
2018-06-18T01:05:53.850Z,99.90
2018-06-18T01:08:22.054Z,99.90
2018-06-18T01:10:50.473Z,99.90
2018-06-18T01:13:18.709Z,99.90
2018-06-18T01:15:47.179Z,99.90
2018-06-18T01:18:15.336Z,99.90
2018-06-18T01:20:43.491Z,99.90
2018-06-18T01:23:23.202Z,99.90
2018-06-18T01:25:51.794Z,99.90
2018-06-18T01:28:19.994Z,99.90
2018-06-18T01:30:48.423Z,99.90
2018-06-18T01:33:16.592Z,99.90
2018-06-18T01:35:44.757Z,99.90
2018-06-18T01:38:12.931Z,99.90
2018-06-18T01:40:41.116Z,99.90
2018-06-18T01:43:09.300Z,99.90
2018-06-18T01:45:38.146Z,99.90
2018-06-18T01:48:06.730Z,99.90
2018-06-18T01:50:35.109Z,99.90
2018-06-18T01:53:03.534Z,99.90
2018-06-18T01:55:31.705Z,99.90
2018-06-18T01:58:00.566Z,99.90
2018-06-18T02:00:28.785Z,99.90
2018-06-18T02:02:57.310Z,99.90
2018-06-18T02:05:25.788Z,99.90
2018-06-18T02:07:54.646Z,99.90
2018-06-18T02:10:23.235Z,99.90
2018-06-18T02:12:51.738Z,99.90
2018-06-18T02:15:20.269Z,99.90
2018-06-18T02:17:48.422Z,99.90
2018-06-18T02:20:16.601Z,99.90
2018-06-18T02:25:13.441Z,99.90
2018-06-18T02:27:47.651Z,99.90
2018-06-18T02:30:21.815Z,99.90
2018-06-18T02:32:55.591Z,99.90
2018-06-18T02:35:30.249Z,99.90
2018-06-18T02:38:04.149Z,99.90
2018-06-18T02:40:38.576Z,99.90
2018-06-18T02:43:07.110Z,99.90
2018-06-18T02:45:35.309Z,99.90
2018-06-18T02:48:03.506Z,99.90
2018-06-18T02:50:31.732Z,99.90
2018-06-18T02:53:00.274Z,99.90
2018-06-18T02:55:28.842Z,99.90
2018-06-18T02:57:57.357Z,99.90
2018-06-18T03:00:25.566Z,99.90
2018-06-18T03:02:54.033Z,99.90
2018-06-18T03:05:22.562Z,99.90
2018-06-18T03:07:51.429Z,99.90
2018-06-18T03:10:19.650Z,99.90
2018-06-18T03:12:48.101Z,99.90
2018-06-18T03:15:16.280Z,99.90
2018-06-18T03:17:45.489Z,99.90
2018-06-18T03:20:19.014Z,99.90
2018-06-18T03:22:52.700Z,99.90
2018-06-18T03:25:26.301Z,99.90
2018-06-18T03:27:59.862Z,99.90
2018-06-18T03:30:34.622Z,99.90
2018-06-18T03:33:03.378Z,99.90
2018-06-18T03:38:00.669Z,99.90
2018-06-18T03:40:28.857Z,99.90
2018-06-18T03:42:57.041Z,99.90
2018-06-18T03:45:30.023Z,99.90
2018-06-18T03:48:03.246Z,99.90
2018-06-18T03:50:31.704Z,99.90
2018-06-18T03:53:00.221Z,99.90
2018-06-18T03:55:30.739Z,99.90
2018-06-18T03:58:03.510Z,99.90
2018-06-18T04:00:36.626Z,99.90
2018-06-18T04:03:10.950Z,99.90
2018-06-18T04:05:44.670Z,99.90
2018-06-18T04:10:46.634Z,99.90
2018-06-18T04:13:15.036Z,99.90
2018-06-18T04:18:11.745Z,99.90
2018-06-18T04:20:43.077Z,99.90
2018-06-18T04:23:11.234Z,99.90
2018-06-18T04:25:39.404Z,99.90
2018-06-18T04:28:07.588Z,99.90
2018-06-18T04:30:35.774Z,99.90
2018-06-18T04:33:03.990Z,99.90
2018-06-18T04:35:32.202Z,99.90
2018-06-18T04:38:00.368Z,99.90
2018-06-18T04:40:28.563Z,99.90
2018-06-18T04:43:02.222Z,99.90
2018-06-18T04:45:36.339Z,99.90
2018-06-18T04:48:10.196Z,99.90
2018-06-18T04:50:46.134Z,99.90
2018-06-18T04:53:14.293Z,99.90
2018-06-18T04:55:43.078Z,99.90
2018-06-18T04:58:11.252Z,99.90
2018-06-18T05:03:08.685Z,99.90
2018-06-18T05:05:37.091Z,99.90
2018-06-18T05:08:44.825Z,99.90
2018-06-18T05:11:12.985Z,99.90
2018-06-18T05:13:41.141Z,99.90
2018-06-18T05:16:09.314Z,99.90
2018-06-18T05:18:38.058Z,99.90
2018-06-18T05:21:06.636Z,99.90
2018-06-18T05:23:34.823Z,99.90
2018-06-18T05:26:02.993Z,99.90
2018-06-18T05:28:31.365Z,99.90
2018-06-18T05:30:59.944Z,99.90
2018-06-18T05:33:28.585Z,99.90
2018-06-18T05:35:57.069Z,99.90
2018-06-18T05:38:30.234Z,99.90
2018-06-18T05:40:59.045Z,99.90
2018-06-18T05:43:27.330Z,99.90
2018-06-18T05:48:23.528Z,99.90
2018-06-18T05:50:52.053Z,99.90
2018-06-18T05:53:20.242Z,99.90
2018-06-18T05:55:48.581Z,99.90
2018-06-18T05:58:17.109Z,99.90
2018-06-18T06:03:13.905Z,99.90
2018-06-18T06:05:42.434Z,99.90
2018-06-18T06:10:39.343Z,99.90
2018-06-18T06:13:09.297Z,99.90
2018-06-18T06:15:38.210Z,99.90
2018-06-18T06:18:06.702Z,99.90
2018-06-18T06:20:35.715Z,99.90
2018-06-18T06:23:04.217Z,99.90
2018-06-18T06:25:32.750Z,99.90
2018-06-18T06:30:30.146Z,99.90
2018-06-18T06:32:58.301Z,99.90
2018-06-18T06:35:30.754Z,99.90
2018-06-18T06:37:58.965Z,99.90
2018-06-18T06:40:27.283Z,99.90
2018-06-18T06:42:55.851Z,99.90
2018-06-18T06:45:24.423Z,99.90
2018-06-18T06:47:52.868Z,99.90
2018-06-18T06:52:49.709Z,99.90
2018-06-18T06:55:18.501Z,99.90
2018-06-18T06:57:47.311Z,99.90
2018-06-18T07:02:43.961Z,99.90
2018-06-18T07:07:40.813Z,99.90
2018-06-18T07:10:09.294Z,99.90
2018-06-18T07:12:37.728Z,99.90
2018-06-18T07:15:06.417Z,99.90
2018-06-18T07:17:36.332Z,99.90
2018-06-18T07:20:04.547Z,99.90
2018-06-18T07:22:33.082Z,99.90
2018-06-18T07:25:02.617Z,99.90
2018-06-18T07:27:30.800Z,99.90
2018-06-18T07:29:58.994Z,99.90
2018-06-18T07:32:27.170Z,99.90
2018-06-18T07:37:24.343Z,99.90
2018-06-18T07:39:52.675Z,99.90
2018-06-18T07:42:21.429Z,99.90
2018-06-18T07:44:49.600Z,99.90
2018-06-18T07:47:17.792Z,99.90
2018-06-18T07:49:46.283Z,99.90
2018-06-18T07:52:14.916Z,99.90
2018-06-18T07:54:43.050Z,99.90
2018-06-18T07:57:11.278Z,99.90
2018-06-18T07:59:39.509Z,99.90
2018-06-18T08:02:08.024Z,99.90
2018-06-18T08:04:36.466Z,99.90
2018-06-18T08:07:04.811Z,99.90
2018-06-18T08:09:33.002Z,99.90
2018-06-18T08:12:01.588Z,99.90
2018-06-18T08:14:30.081Z,99.90
2018-06-18T08:16:58.558Z,99.90
2018-06-18T08:19:27.028Z,99.90
2018-06-18T08:21:55.611Z,99.90
2018-06-18T08:24:24.298Z,99.90
2018-06-18T08:26:53.008Z,99.90
2018-06-18T08:29:21.462Z,99.90
2018-06-18T08:31:50.053Z,99.90
2018-06-18T08:34:18.228Z,99.90
2018-06-18T08:36:46.707Z,99.90
2018-06-18T08:39:14.876Z,99.90
2018-06-18T08:41:43.260Z,99.90
2018-06-18T08:44:12.622Z,99.90
2018-06-18T08:46:41.020Z,99.90
2018-06-18T08:49:09.757Z,99.90
2018-06-18T08:51:43.228Z,99.30
2018-06-18T08:54:17.134Z,98.10
2018-06-18T08:56:50.900Z,96.60
2018-06-18T08:59:24.707Z,96.60
2018-06-18T09:01:53.541Z,94.80
2018-06-18T09:04:27.567Z,91.90
2018-06-18T09:07:02.115Z,88.90
2018-06-18T09:09:30.365Z,90.60
2018-06-18T09:11:58.557Z,87.80
2018-06-18T09:14:26.786Z,86.40
2018-06-18T09:16:54.959Z,85.80
2018-06-18T09:19:23.557Z,86.60
2018-06-18T09:21:52.196Z,86.80
2018-06-18T09:24:25.091Z,87.80
2018-06-18T09:26:57.513Z,88.90
2018-06-18T09:29:25.978Z,86.30
2018-06-18T09:31:54.159Z,87.60
2018-06-18T09:34:22.723Z,88.90
2018-06-18T09:36:50.887Z,88.00
2018-06-18T09:39:19.060Z,85.70
2018-06-18T09:41:47.269Z,84.40
2018-06-18T09:44:15.457Z,76.70
2018-06-18T09:46:43.620Z,76.30
2018-06-18T09:49:17.326Z,71.80
2018-06-18T09:51:50.973Z,67.10
2018-06-18T09:54:24.873Z,65.20
2018-06-18T09:56:59.502Z,60.70
2018-06-18T09:59:40.295Z,62.70
2018-06-18T10:02:10.307Z,61.60
2018-06-18T10:04:38.489Z,58.80
2018-06-18T10:07:07.104Z,61.40
2018-06-18T10:09:35.675Z,55.70
2018-06-18T10:12:04.290Z,55.00
2018-06-18T10:14:32.471Z,55.90
2018-06-18T10:17:01.496Z,56.60
2018-06-18T10:19:29.997Z,55.70
2018-06-18T10:21:58.601Z,56.20
2018-06-18T10:24:27.171Z,55.50
2018-06-18T10:26:55.337Z,55.50
2018-06-18T10:29:23.527Z,53.40
2018-06-18T10:31:51.777Z,55.00
2018-06-18T10:34:26.032Z,56.10
2018-06-18T10:36:59.503Z,58.20
2018-06-18T10:39:32.942Z,59.80
2018-06-18T10:42:06.609Z,60.10
2018-06-18T10:44:34.845Z,64.50
2018-06-18T10:47:03.505Z,61.70
2018-06-18T10:49:31.669Z,63.70
2018-06-18T10:52:00.273Z,64.90
2018-06-18T10:54:28.443Z,66.10
2018-06-18T10:56:56.619Z,64.20
2018-06-18T10:59:24.776Z,65.30
2018-06-18T11:01:54.049Z,66.70
2018-06-18T11:04:28.023Z,66.20
2018-06-18T11:06:56.917Z,66.10
2018-06-18T11:09:25.802Z,64.60
2018-06-18T11:11:54.812Z,66.40
2018-06-18T11:14:23.584Z,67.90
2018-06-18T11:16:57.302Z,68.40
2018-06-18T11:19:30.904Z,67.90
2018-06-18T11:22:03.566Z,67.90
2018-06-18T11:24:37.527Z,68.40
2018-06-18T11:27:06.104Z,69.30
2018-06-18T11:29:34.286Z,67.60
2018-06-18T11:32:03.293Z,69.30
2018-06-18T11:34:31.489Z,69.30
2018-06-18T11:36:59.678Z,69.40
2018-06-18T11:39:28.319Z,70.40
2018-06-18T11:41:57.095Z,69.60
2018-06-18T11:44:25.665Z,68.60
2018-06-18T11:46:53.854Z,68.00
2018-06-18T11:49:22.013Z,68.10
2018-06-18T11:51:50.485Z,67.30
2018-06-18T11:54:19.060Z,66.80
2018-06-18T11:56:47.581Z,66.20
2018-06-18T11:59:21.254Z,62.50
2018-06-18T12:01:55.604Z,60.60
2018-06-18T12:04:29.838Z,57.20
2018-06-18T12:07:03.504Z,57.50
2018-06-18T12:09:33.540Z,54.90
2018-06-18T12:12:01.717Z,52.30
2018-06-18T12:14:29.865Z,48.40
2018-06-18T12:16:58.505Z,47.60
2018-06-18T12:19:26.681Z,44.70
2018-06-18T12:21:55.159Z,43.80
2018-06-18T12:24:23.639Z,43.40
2018-06-18T12:26:51.909Z,39.90
2018-06-18T12:29:20.061Z,40.60
2018-06-18T12:31:48.276Z,38.90
2018-06-18T12:34:16.473Z,38.30
2018-06-18T12:36:45.028Z,41.90
2018-06-18T12:39:13.198Z,43.60
2018-06-18T12:41:46.146Z,46.60
2018-06-18T12:46:51.090Z,40.90
2018-06-18T12:49:25.548Z,38.80
2018-06-18T12:51:59.585Z,37.30
2018-06-18T12:54:33.145Z,34.70
2018-06-18T12:57:04.513Z,35.10
2018-06-18T12:59:33.405Z,35.40
2018-06-18T13:02:05.539Z,37.20
2018-06-18T13:04:36.669Z,37.40
2018-06-18T13:07:04.862Z,37.20
2018-06-18T13:09:33.021Z,39.00
2018-06-18T13:12:01.199Z,37.90
2018-06-18T13:14:35.773Z,38.70
2018-06-18T13:17:04.233Z,37.90
2018-06-18T13:19:32.915Z,38.40
2018-06-18T13:22:01.814Z,41.00
2018-06-18T13:24:31.166Z,40.70
2018-06-18T13:27:00.122Z,41.20
2018-06-18T13:29:28.777Z,41.00
2018-06-18T13:31:56.967Z,42.80
2018-06-18T13:34:25.703Z,43.30
2018-06-18T13:36:59.435Z,42.90
2018-06-18T13:39:32.980Z,44.60
2018-06-18T13:42:06.674Z,45.50
2018-06-18T13:44:40.743Z,44.90
2018-06-18T13:47:14.381Z,45.60
2018-06-18T13:49:48.009Z,46.70
2018-06-18T13:52:16.653Z,45.80
2018-06-18T13:54:44.958Z,46.90
2018-06-18T13:57:13.146Z,47.50
2018-06-18T13:59:41.454Z,47.20
2018-06-18T14:02:09.673Z,48.20
2018-06-18T14:04:37.909Z,48.50
2018-06-18T14:07:06.174Z,48.90
2018-06-18T14:09:34.757Z,49.30
2018-06-18T14:12:03.164Z,48.10
2018-06-18T14:14:31.461Z,48.20
2018-06-18T14:17:00.053Z,48.30
2018-06-18T14:19:33.958Z,49.80
2018-06-18T14:22:02.599Z,50.00
2018-06-18T14:24:30.787Z,49.00
2018-06-18T14:26:59.081Z,48.90
2018-06-18T14:29:32.903Z,49.20
2018-06-18T14:32:01.165Z,48.80
2018-06-18T14:34:34.813Z,50.00
2018-06-18T14:37:08.960Z,48.30
2018-06-18T14:39:42.606Z,49.00
2018-06-18T14:42:11.237Z,49.80
2018-06-18T14:44:39.753Z,51.30
2018-06-18T14:47:07.986Z,50.70
2018-06-18T14:49:36.177Z,48.70
2018-06-18T14:52:04.382Z,49.50
2018-06-18T14:54:32.917Z,50.00
2018-06-18T14:57:02.633Z,49.60
2018-06-18T14:59:34.891Z,50.50
2018-06-18T15:02:03.131Z,51.20
2018-06-18T15:04:32.230Z,51.50
2018-06-18T15:07:00.419Z,51.50
2018-06-18T15:09:29.031Z,51.80
2018-06-18T15:11:57.133Z,52.00
2018-06-18T15:14:25.312Z,51.30
2018-06-18T15:16:53.902Z,52.10
2018-06-18T15:19:22.159Z,52.20
2018-06-18T15:21:53.466Z,52.50
2018-06-18T15:25:03.399Z,52.00
2018-06-18T15:27:31.923Z,51.90
2018-06-18T15:30:00.302Z,51.50
2018-06-18T15:32:28.538Z,52.00
2018-06-18T15:34:56.713Z,50.80
2018-06-18T15:37:25.234Z,51.60
2018-06-18T15:39:54.213Z,51.50
2018-06-18T15:42:23.236Z,52.00
2018-06-18T15:44:51.418Z,52.00
2018-06-18T15:47:20.014Z,52.50
2018-06-18T15:49:48.550Z,52.80
2018-06-18T15:52:17.550Z,53.70
2018-06-18T15:54:46.053Z,53.60
2018-06-18T15:57:14.363Z,51.90
2018-06-18T15:59:42.834Z,53.50
2018-06-18T16:02:11.006Z,53.40
2018-06-18T16:04:39.593Z,53.50
2018-06-18T16:07:08.191Z,53.60
2018-06-18T16:09:36.669Z,53.80
2018-06-18T16:12:05.340Z,54.30
2018-06-18T16:14:34.398Z,55.50
2018-06-18T16:17:03.834Z,54.30
2018-06-18T16:19:32.090Z,55.80
2018-06-18T16:22:00.955Z,55.40
2018-06-18T16:24:29.906Z,55.60
2018-06-18T16:26:58.511Z,56.40
2018-06-18T16:29:27.474Z,55.60
2018-06-18T16:31:55.640Z,55.80
2018-06-18T16:34:23.807Z,56.00
2018-06-18T16:36:51.998Z,57.20
2018-06-18T16:39:20.164Z,57.30
2018-06-18T16:41:48.338Z,55.90
2018-06-18T16:44:17.161Z,56.00
2018-06-18T16:46:45.696Z,55.60
2018-06-18T16:49:13.857Z,56.30
2018-06-18T16:51:42.051Z,56.90
2018-06-18T16:54:10.551Z,57.20
2018-06-18T16:56:39.196Z,58.30
2018-06-18T16:59:07.900Z,58.40
2018-06-18T17:01:36.095Z,58.60
2018-06-18T17:04:04.471Z,58.60
2018-06-18T17:06:32.651Z,57.30
2018-06-18T17:09:00.847Z,58.10
2018-06-18T17:11:29.006Z,57.60
2018-06-18T17:13:57.221Z,57.80
2018-06-18T17:16:25.838Z,57.10
2018-06-18T17:18:54.201Z,57.40
2018-06-18T17:21:22.979Z,57.40
2018-06-18T17:23:52.117Z,57.20
2018-06-18T17:26:20.632Z,58.50
2018-06-18T17:28:49.064Z,58.20
2018-06-18T17:31:17.561Z,59.00
2018-06-18T17:33:46.180Z,59.10
2018-06-18T17:36:14.725Z,58.60
2018-06-18T17:41:11.245Z,59.20
2018-06-18T17:43:40.217Z,59.60
2018-06-18T17:46:08.589Z,59.00
2018-06-18T17:48:37.110Z,59.80
2018-06-18T17:51:05.685Z,59.50
2018-06-18T17:53:34.585Z,60.20
2018-06-18T17:56:02.828Z,59.90
2018-06-18T17:58:31.047Z,59.80
2018-06-18T18:00:59.542Z,59.40
2018-06-18T18:05:56.493Z,59.40
2018-06-18T18:08:25.001Z,61.00
2018-06-18T18:10:53.702Z,60.20
2018-06-18T18:13:22.809Z,60.30
2018-06-18T18:15:51.641Z,61.60
2018-06-18T18:18:20.144Z,60.40
2018-06-18T18:20:48.338Z,60.00
2018-06-18T18:23:16.970Z,60.70
2018-06-18T18:25:45.366Z,60.10
2018-06-18T18:28:13.571Z,59.70
2018-06-18T18:30:41.779Z,60.70
2018-06-18T18:33:10.710Z,61.70
2018-06-18T18:35:38.930Z,61.80
2018-06-18T18:38:07.169Z,62.10
2018-06-18T18:40:35.621Z,61.60
2018-06-18T18:43:03.829Z,62.70
2018-06-18T18:45:32.113Z,63.50
2018-06-18T18:48:00.672Z,62.40
2018-06-18T18:50:28.872Z,63.00
2018-06-18T18:52:57.076Z,64.30
2018-06-18T18:55:39.233Z,64.80
2018-06-18T18:58:20.651Z,62.90
2018-06-18T19:00:50.127Z,63.50
2018-06-18T19:03:20.151Z,64.20
2018-06-18T19:05:49.265Z,66.10
2018-06-18T19:08:24.972Z,65.60
2018-06-18T19:10:53.697Z,64.80
2018-06-18T19:13:24.197Z,66.30
2018-06-18T19:15:53.986Z,66.00
2018-06-18T19:18:22.341Z,67.10
2018-06-18T19:20:57.250Z,67.10
2018-06-18T19:23:25.428Z,67.80
2018-06-18T19:25:54.413Z,67.40
2018-06-18T19:28:22.613Z,67.60
2018-06-18T19:30:54.134Z,68.30
2018-06-18T19:33:25.676Z,66.80
2018-06-18T19:35:53.894Z,68.40
2018-06-18T19:38:22.090Z,67.50
2018-06-18T19:40:50.285Z,68.40
2018-06-18T19:43:19.281Z,68.90
2018-06-18T19:45:50.885Z,70.40
2018-06-18T19:48:21.577Z,68.60
2018-06-18T19:50:49.863Z,69.10
2018-06-18T19:53:18.378Z,69.20
2018-06-18T19:55:47.296Z,69.20
2018-06-18T19:58:15.450Z,69.70
2018-06-18T20:00:46.970Z,69.70
2018-06-18T20:03:15.168Z,69.90
2018-06-18T20:05:43.409Z,70.20
2018-06-18T20:08:13.233Z,70.60
2018-06-18T20:10:41.404Z,71.20
2018-06-18T20:15:38.717Z,71.90
2018-06-18T20:18:07.546Z,72.10
2018-06-18T20:20:36.149Z,72.90
2018-06-18T20:23:06.076Z,73.10
2018-06-18T20:25:40.772Z,73.00
2018-06-18T20:28:08.972Z,73.30
2018-06-18T20:30:37.150Z,74.30
2018-06-18T20:33:05.945Z,74.00
2018-06-18T20:35:36.709Z,74.40
2018-06-18T20:38:05.445Z,75.30
2018-06-18T20:43:02.499Z,75.50
2018-06-18T20:45:31.380Z,75.80
2018-06-18T20:48:00.281Z,76.20
2018-06-18T20:50:28.843Z,77.30
2018-06-18T20:52:56.962Z,77.20
2018-06-18T20:55:25.145Z,77.70
2018-06-18T20:57:53.340Z,78.10
2018-06-18T21:00:21.513Z,78.40
2018-06-18T21:02:49.737Z,79.30
2018-06-18T21:05:18.538Z,80.00
2018-06-18T21:07:46.827Z,80.60
2018-06-18T21:10:15.309Z,81.70
2018-06-18T21:12:43.476Z,82.70
2018-06-18T21:15:11.653Z,83.60
2018-06-18T21:17:39.848Z,84.40
2018-06-18T21:20:08.015Z,85.50
2018-06-18T21:22:36.166Z,86.50
2018-06-18T21:27:32.616Z,89.40
2018-06-18T21:30:00.818Z,90.60
2018-06-18T21:32:29.002Z,91.40
2018-06-18T21:34:57.485Z,92.70
2018-06-18T21:37:25.964Z,93.70
2018-06-18T21:39:54.697Z,95.00
2018-06-18T21:42:23.117Z,95.30
2018-06-18T21:45:12.405Z,96.20
2018-06-18T21:47:40.982Z,97.10
2018-06-18T21:50:09.569Z,97.50
2018-06-18T21:52:38.116Z,98.30
2018-06-18T21:55:06.298Z,98.80
2018-06-18T21:57:34.964Z,99.50
2018-06-18T22:00:03.461Z,99.90
2018-06-18T22:02:31.970Z,99.90
2018-06-18T22:05:00.566Z,99.90
2018-06-18T22:07:29.367Z,99.90
2018-06-18T22:09:57.934Z,99.90
2018-06-18T22:12:26.124Z,99.90
2018-06-18T22:14:54.794Z,99.90
2018-06-18T22:17:23.285Z,99.90
2018-06-18T22:19:51.457Z,99.90
2018-06-18T22:22:20.429Z,99.90
2018-06-18T22:24:48.689Z,99.90
2018-06-18T22:27:16.878Z,99.90
2018-06-18T22:29:45.078Z,99.90
2018-06-18T22:32:13.694Z,99.90
2018-06-18T22:34:42.290Z,99.90
2018-06-18T22:37:11.090Z,99.90
2018-06-18T22:39:39.612Z,99.90
2018-06-18T22:42:08.185Z,99.90
2018-06-18T22:44:36.762Z,99.90
2018-06-18T22:49:32.893Z,99.90
2018-06-18T22:52:01.358Z,99.90
2018-06-18T22:54:30.649Z,99.90
2018-06-18T22:56:59.642Z,99.90
2018-06-18T22:59:28.538Z,99.90
2018-06-18T23:01:57.562Z,99.90
2018-06-18T23:04:26.213Z,99.90
2018-06-18T23:06:54.844Z,99.90
2018-06-18T23:09:23.439Z,99.90
2018-06-18T23:11:51.949Z,99.90
2018-06-18T23:14:22.213Z,99.90
2018-06-18T23:16:50.381Z,99.90
2018-06-18T23:19:18.549Z,99.90
2018-06-18T23:21:47.165Z,99.90
2018-06-18T23:24:15.336Z,99.90
2018-06-18T23:26:44.010Z,99.90
2018-06-18T23:29:14.245Z,99.90
2018-06-18T23:31:42.456Z,99.90
2018-06-18T23:34:10.623Z,99.90
2018-06-18T23:36:39.261Z,99.90
2018-06-18T23:39:08.719Z,99.90
2018-06-18T23:41:39.528Z,99.90
2018-06-18T23:44:08.086Z,99.90
2018-06-18T23:46:36.366Z,99.90
2018-06-18T23:49:04.554Z,99.90
2018-06-18T23:51:33.714Z,99.90
2018-06-18T23:54:02.607Z,99.90
2018-06-18T23:56:32.019Z,99.90
2018-06-18T23:59:00.232Z,99.90
